Tabellarische Übersicht vom Samstag, den 04.07.2020

Oder anderes Datum wählen:






max 21,2°C 80,0% 15,5°C 1016,9hPa 21,0°C 0,0km/h (0Bft) 0,0km/h 0° (N) ∑0,0l/m² 73,000klx ∑36,6min
min 15,7°C 57,0% 10,8°C 1013,6hPa 16,0°C 0,0km/h (0Bft) 0,0km/h 0° (N) ∑0,0l/m² 0,000klx ∑36,6min
Ø 18,2°C 71,0% 12,8°C 1015,2hPa 18,0°C 0,0km/h (0Bft) 0,0km/h 0° (N) ∑0,0l/m² 25,000klx ∑36,6min
Zeit Temperatur Luftfeuchte Taupunkt Luftdruck Windchill Windböen Windgeschwindigkeit Windrichtung Regen Helligkeit Regenzeit
16:45 20,9°C 71,4% 15,5°C 1014,0hPa 20,9°C 0,0km/h (0Bft) 0,0km/h 0,0l/m² 14,066klx 0,0min
16:40 20,9°C 71,0% 15,4°C 1014,0hPa 20,9°C 0,0km/h (0Bft) 0,0km/h 0,0l/m² 15,340klx 0,0min
16:35 21,0°C 70,7% 15,5°C 1013,9hPa 21,0°C 0,0km/h (0Bft) 0,0km/h 0,0l/m² 19,238klx 0,0min
16:30 21,0°C 70,1% 15,3°C 1013,9hPa 21,0°C 0,0km/h (0Bft) 0,0km/h 0,0l/m² 20,719klx 0,0min
16:25 21,0°C 70,1% 15,3°C 1013,9hPa 21,0°C 0,0km/h (0Bft) 0,0km/h 0,0l/m² 19,182klx 0,0min
16:20 20,9°C 70,0% 15,2°C 1013,9hPa 20,9°C 0,0km/h (0Bft) 0,0km/h 0,0l/m² 25,002klx 0,0min
16:15 20,9°C 70,1% 15,2°C 1014,0hPa 20,9°C 0,0km/h (0Bft) 0,0km/h 0,0l/m² 17,226klx 0,0min
16:10 21,1°C 68,9% 15,2°C 1014,0hPa 21,1°C 0,0km/h (0Bft) 0,0km/h 0,0l/m² 19,715klx 0,0min
16:05 21,2°C 68,5% 15,2°C 1014,0hPa 21,2°C 0,0km/h (0Bft) 0,0km/h 0,0l/m² 17,773klx 0,0min
16:00 21,2°C 68,9% 15,2°C 1013,9hPa 21,2°C 0,0km/h (0Bft) 0,0km/h 0,0l/m² 23,897klx 0,0min
15:55 21,0°C 69,5% 15,3°C 1013,9hPa 21,0°C 0,0km/h (0Bft) 0,0km/h 0,0l/m² 21,419klx 0,0min
15:50 21,0°C 70,1% 15,3°C 1013,8hPa 21,0°C 0,0km/h (0Bft) 0,0km/h 0,0l/m² 17,628klx 0,0min
15:45 20,9°C 70,1% 15,2°C 1013,8hPa 20,9°C 0,0km/h (0Bft) 0,0km/h 0,0l/m² 18,011klx 0,0min
15:40 20,8°C 70,1% 15,1°C 1013,7hPa 20,8°C 0,0km/h (0Bft) 0,0km/h 0,0l/m² 16,808klx 0,0min
15:35 20,7°C 70,1% 15,1°C 1013,7hPa 20,7°C 0,0km/h (0Bft) 0,0km/h 0,0l/m² 19,016klx 0,0min
15:30 20,7°C 70,1% 15,1°C 1013,7hPa 20,7°C 0,0km/h (0Bft) 0,0km/h 0,0l/m² 17,058klx 0,0min
15:25 20,7°C 69,9% 15,0°C 1013,7hPa 20,7°C 0,0km/h (0Bft) 0,0km/h 0,0l/m² 17,066klx 0,0min
15:20 20,6°C 70,7% 15,1°C 1013,6hPa 20,6°C 0,0km/h (0Bft) 0,0km/h 0,0l/m² 15,481klx 0,0min
15:15 20,6°C 70,9% 15,1°C 1013,6hPa 20,6°C 0,0km/h (0Bft) 0,0km/h 0,0l/m² 19,798klx 0,0min
15:10 20,5°C 71,5% 15,1°C 1013,7hPa 20,5°C 0,0km/h (0Bft) 0,0km/h 0,0l/m² 17,977klx 0,0min
15:05 20,4°C 71,6% 15,1°C 1013,7hPa 20,4°C 0,0km/h (0Bft) 0,0km/h 0,0l/m² 17,611klx 0,0min
15:00 20,6°C 70,4% 15,0°C 1013,7hPa 20,6°C 0,0km/h (0Bft) 0,0km/h 0,0l/m² 26,659klx 0,0min
14:55 20,6°C 70,9% 15,1°C 1013,7hPa 20,6°C 0,0km/h (0Bft) 0,0km/h 0,0l/m² 34,841klx 0,0min
14:50 20,5°C 71,3% 15,2°C 1013,7hPa 20,5°C 0,0km/h (0Bft) 0,0km/h 0,0l/m² 32,567klx 0,0min
14:45 20,4°C 71,8% 15,1°C 1013,8hPa 20,4°C 0,0km/h (0Bft) 0,0km/h 0,0l/m² 25,342klx 0,0min
14:40 20,4°C 71,7% 15,1°C 1013,8hPa 20,4°C 0,0km/h (0Bft) 0,0km/h 0,0l/m² 27,472klx 0,0min
14:35 20,7°C 70,8% 15,2°C 1013,8hPa 20,7°C 0,0km/h (0Bft) 0,0km/h 0,0l/m² 31,981klx 0,0min
14:30 20,8°C 69,4% 15,0°C 1013,8hPa 20,8°C 0,0km/h (0Bft) 0,0km/h 0,0l/m² 54,326klx 0,0min
14:25 20,8°C 69,6% 15,1°C 1013,9hPa 20,8°C 0,0km/h (0Bft) 0,0km/h 0,0l/m² 53,899klx 0,0min
14:20 20,9°C 68,9% 15,0°C 1013,9hPa 20,9°C 0,0km/h (0Bft) 0,0km/h 0,0l/m² 53,531klx 0,0min
14:15 20,9°C 69,2% 15,1°C 1013,9hPa 20,9°C 0,0km/h (0Bft) 0,0km/h 0,0l/m² 67,420klx 0,0min
14:10 20,5°C 70,2% 14,9°C 1014,0hPa 20,5°C 0,0km/h (0Bft) 0,0km/h 0,0l/m² 57,390klx 0,0min
14:05 20,3°C 70,6% 14,8°C 1014,0hPa 20,3°C 0,0km/h (0Bft) 0,0km/h 0,0l/m² 56,275klx 0,0min
14:00 19,8°C 73,2% 14,9°C 1014,0hPa 19,8°C 0,0km/h (0Bft) 0,0km/h 0,0l/m² 65,504klx 0,0min
13:55 19,4°C 74,5% 14,7°C 1014,1hPa 19,4°C 0,0km/h (0Bft) 0,0km/h 0,0l/m² 59,804klx 0,0min
13:50 19,1°C 75,2% 14,6°C 1014,1hPa 19,1°C 0,0km/h (0Bft) 0,0km/h 0,0l/m² 55,908klx 4,1min
13:45 19,5°C 71,6% 14,2°C 1014,3hPa 19,5°C 0,0km/h (0Bft) 0,0km/h 0,0l/m² 41,928klx 4,2min
13:40 20,1°C 67,4% 13,9°C 1014,3hPa 20,1°C 0,0km/h (0Bft) 0,0km/h 0,0l/m² 33,764klx 0,0min
13:35 20,5°C 65,7% 13,8°C 1014,1hPa 20,5°C 0,0km/h (0Bft) 0,0km/h 0,0l/m² 32,015klx 0,0min
13:30 20,8°C 65,6% 14,1°C 1014,1hPa 20,8°C 0,0km/h (0Bft) 0,0km/h 0,0l/m² 36,824klx 0,0min
13:25 20,9°C 64,9% 14,0°C 1014,1hPa 20,9°C 0,0km/h (0Bft) 0,0km/h 0,0l/m² 45,816klx 0,0min
13:20 20,7°C 64,5% 13,8°C 1014,2hPa 20,7°C 0,0km/h (0Bft) 0,0km/h 0,0l/m² 56,324klx 0,0min
13:15 20,7°C 64,3% 13,7°C 1014,2hPa 20,7°C 0,0km/h (0Bft) 0,0km/h 0,0l/m² 60,899klx 0,0min
13:10 20,5°C 65,3% 13,8°C 1014,2hPa 20,5°C 0,0km/h (0Bft) 0,0km/h 0,0l/m² 67,973klx 0,0min
13:05 20,0°C 66,1% 13,4°C 1014,3hPa 20,0°C 0,0km/h (0Bft) 0,0km/h 0,0l/m² 49,367klx 1,2min
13:00 19,8°C 66,6% 13,4°C 1014,3hPa 19,8°C 0,0km/h (0Bft) 0,0km/h 0,0l/m² 31,524klx 0,0min
12:55 19,7°C 67,7% 13,6°C 1014,2hPa 19,7°C 0,0km/h (0Bft) 0,0km/h 0,0l/m² 32,802klx 0,0min
12:50 19,5°C 69,9% 13,8°C 1014,2hPa 19,5°C 0,0km/h (0Bft) 0,0km/h 0,0l/m² 47,872klx 0,0min
12:45 19,2°C 70,1% 13,6°C 1014,2hPa 19,2°C 0,0km/h (0Bft) 0,0km/h 0,0l/m² 35,610klx 4,3min
12:40 19,6°C 67,1% 13,3°C 1014,2hPa 19,6°C 0,0km/h (0Bft) 0,0km/h 0,0l/m² 22,398klx 4,0min
12:35 20,3°C 63,8% 13,2°C 1014,2hPa 20,3°C 0,0km/h (0Bft) 0,0km/h 0,0l/m² 27,200klx 4,6min
12:30 20,9°C 60,2% 12,9°C 1014,2hPa 20,9°C 0,0km/h (0Bft) 0,0km/h 0,0l/m² 37,316klx 1,0min
12:25 20,8°C 59,8% 12,7°C 1014,2hPa 20,8°C 0,0km/h (0Bft) 0,0km/h 0,0l/m² 50,118klx 0,0min
12:20 20,7°C 59,0% 12,4°C 1014,2hPa 20,7°C 0,0km/h (0Bft) 0,0km/h 0,0l/m² 38,511klx 0,0min
12:15 20,9°C 57,7% 12,3°C 1014,2hPa 20,9°C 0,0km/h (0Bft) 0,0km/h 0,0l/m² 46,461klx 0,0min
12:10 21,3°C 57,1% 12,4°C 1014,3hPa 21,3°C 0,0km/h (0Bft) 0,0km/h 0,0l/m² 57,903klx 0,0min
12:05 21,0°C 58,3% 12,5°C 1014,3hPa 21,0°C 0,0km/h (0Bft) 0,0km/h 0,0l/m² 69,815klx 0,0min
12:00 20,8°C 59,8% 12,7°C 1014,3hPa 20,8°C 0,0km/h (0Bft) 0,0km/h 0,0l/m² 61,724klx 0,0min
11:55 20,6°C 60,5% 12,7°C 1014,4hPa 20,6°C 0,0km/h (0Bft) 0,0km/h 0,0l/m² 47,717klx 0,0min
11:50 20,8°C 60,1% 12,8°C 1014,3hPa 20,8°C 0,0km/h (0Bft) 0,0km/h 0,0l/m² 50,071klx 0,0min
11:45 21,0°C 60,1% 13,0°C 1014,3hPa 21,0°C 0,0km/h (0Bft) 0,0km/h 0,0l/m² 73,157klx 0,0min
11:40 20,4°C 61,3% 12,7°C 1014,4hPa 20,4°C 0,0km/h (0Bft) 0,0km/h 0,0l/m² 55,156klx 0,0min
11:35 20,2°C 62,4% 12,7°C 1014,5hPa 20,2°C 0,0km/h (0Bft) 0,0km/h 0,0l/m² 46,808klx 0,0min
11:30 20,0°C 62,0% 12,5°C 1014,5hPa 20,0°C 0,0km/h (0Bft) 0,0km/h 0,0l/m² 42,840klx 0,0min
11:25 19,9°C 62,4% 12,5°C 1014,5hPa 19,9°C 0,0km/h (0Bft) 0,0km/h 0,0l/m² 38,683klx 0,0min
11:20 19,9°C 62,7% 12,5°C 1014,5hPa 19,9°C 0,0km/h (0Bft) 0,0km/h 0,0l/m² 33,852klx 0,0min
11:15 19,8°C 63,0% 12,5°C 1014,6hPa 19,8°C 0,0km/h (0Bft) 0,0km/h 0,0l/m² 35,893klx 0,0min
11:10 19,9°C 63,1% 12,6°C 1014,6hPa 19,9°C 0,0km/h (0Bft) 0,0km/h 0,0l/m² 38,626klx 0,0min
11:05 19,8°C 63,9% 12,8°C 1014,6hPa 19,8°C 0,0km/h (0Bft) 0,0km/h 0,0l/m² 40,370klx 0,0min
11:00 19,8°C 63,6% 12,7°C 1014,6hPa 19,8°C 0,0km/h (0Bft) 0,0km/h 0,0l/m² 40,508klx 0,0min
10:55 19,8°C 66,1% 13,2°C 1014,6hPa 19,8°C 0,0km/h (0Bft) 0,0km/h 0,0l/m² 40,383klx 0,0min
10:50 19,8°C 65,0% 13,0°C 1014,6hPa 19,8°C 0,0km/h (0Bft) 0,0km/h 0,0l/m² 37,497klx 0,0min
10:45 19,6°C 65,0% 12,8°C 1014,7hPa 19,6°C 0,0km/h (0Bft) 0,0km/h 0,0l/m² 44,957klx 0,0min
10:40 19,3°C 66,4% 12,9°C 1014,7hPa 19,3°C 0,0km/h (0Bft) 0,0km/h 0,0l/m² 40,804klx 0,0min
10:35 19,2°C 66,3% 12,7°C 1014,8hPa 19,2°C 0,0km/h (0Bft) 0,0km/h 0,0l/m² 34,472klx 0,0min
10:30 19,0°C 66,6% 12,6°C 1014,8hPa 19,0°C 0,0km/h (0Bft) 0,0km/h 0,0l/m² 25,220klx 0,0min
10:25 19,1°C 66,1% 12,6°C 1014,8hPa 19,1°C 0,0km/h (0Bft) 0,0km/h 0,0l/m² 23,726klx 0,0min
10:20 19,1°C 66,8% 12,7°C 1014,8hPa 19,1°C 0,0km/h (0Bft) 0,0km/h 0,0l/m² 30,021klx 0,0min
10:15 19,0°C 66,3% 12,6°C 1014,8hPa 19,0°C 0,0km/h (0Bft) 0,0km/h 0,0l/m² 31,307klx 0,0min
10:10 19,0°C 66,3% 12,5°C 1014,7hPa 19,0°C 0,0km/h (0Bft) 0,0km/h 0,0l/m² 31,657klx 0,0min
10:05 18,9°C 67,5% 12,7°C 1014,7hPa 18,9°C 0,0km/h (0Bft) 0,0km/h 0,0l/m² 34,193klx 0,0min
10:00 18,6°C 67,8% 12,6°C 1014,8hPa 18,6°C 0,0km/h (0Bft) 0,0km/h 0,0l/m² 29,576klx 0,0min
09:55 18,5°C 68,5% 12,6°C 1014,8hPa 18,5°C 0,0km/h (0Bft) 0,0km/h 0,0l/m² 22,731klx 0,0min
09:50 18,4°C 68,9% 12,6°C 1014,8hPa 18,4°C 0,0km/h (0Bft) 0,0km/h 0,0l/m² 22,445klx 0,0min
09:45 18,3°C 69,2% 12,5°C 1014,8hPa 18,3°C 0,0km/h (0Bft) 0,0km/h 0,0l/m² 26,113klx 0,0min
09:40 18,1°C 70,6% 12,7°C 1014,8hPa 18,1°C 0,0km/h (0Bft) 0,0km/h 0,0l/m² 24,586klx 0,0min
09:35 17,8°C 71,2% 12,5°C 1014,9hPa 17,8°C 0,0km/h (0Bft) 0,0km/h 0,0l/m² 21,156klx 0,0min
09:30 17,7°C 72,3% 12,7°C 1015,0hPa 17,7°C 0,0km/h (0Bft) 0,0km/h 0,0l/m² 16,047klx 0,0min
09:25 17,9°C 70,6% 12,5°C 1015,0hPa 17,9°C 0,0km/h (0Bft) 0,0km/h 0,0l/m² 16,406klx 1,6min
09:20 18,0°C 70,4% 12,5°C 1015,0hPa 18,0°C 0,0km/h (0Bft) 0,0km/h 0,0l/m² 23,122klx 0,0min
09:15 17,9°C 70,2% 12,4°C 1015,0hPa 17,9°C 0,0km/h (0Bft) 0,0km/h 0,0l/m² 23,442klx 0,0min
09:10 17,9°C 69,9% 12,3°C 1015,0hPa 17,9°C 0,0km/h (0Bft) 0,0km/h 0,0l/m² 21,967klx 0,0min
09:05 17,9°C 69,8% 12,3°C 1015,0hPa 17,9°C 0,0km/h (0Bft) 0,0km/h 0,0l/m² 24,256klx 0,0min
09:00 17,7°C 70,3% 12,2°C 1015,0hPa 17,7°C 0,0km/h (0Bft) 0,0km/h 0,0l/m² 22,024klx 0,0min
08:55 17,6°C 70,8% 12,2°C 1015,0hPa 17,6°C 0,0km/h (0Bft) 0,0km/h 0,0l/m² 18,838klx 0,0min
08:50 17,6°C 70,0% 12,0°C 1015,0hPa 17,6°C 0,0km/h (0Bft) 0,0km/h 0,0l/m² 14,570klx 0,0min
08:45 17,5°C 71,4% 12,3°C 1015,0hPa 17,5°C 0,0km/h (0Bft) 0,0km/h 0,0l/m² 13,963klx 0,0min
08:40 17,5°C 71,2% 12,2°C 1015,1hPa 17,5°C 0,0km/h (0Bft) 0,0km/h 0,0l/m² 13,915klx 0,0min
08:35 17,6°C 69,7% 12,0°C 1015,1hPa 17,6°C 0,0km/h (0Bft) 0,0km/h 0,0l/m² 14,296klx 0,0min
08:30 17,6°C 70,0% 12,1°C 1015,1hPa 17,6°C 0,0km/h (0Bft) 0,0km/h 0,0l/m² 14,671klx 0,0min
08:25 17,6°C 69,9% 12,0°C 1015,1hPa 17,6°C 0,0km/h (0Bft) 0,0km/h 0,0l/m² 16,293klx 0,0min
08:20 17,5°C 70,1% 12,0°C 1015,1hPa 17,5°C 0,0km/h (0Bft) 0,0km/h 0,0l/m² 16,752klx 0,0min
08:15 17,5°C 70,6% 12,1°C 1015,2hPa 17,5°C 0,0km/h (0Bft) 0,0km/h 0,0l/m² 15,760klx 0,0min
08:10 17,3°C 71,5% 12,1°C 1015,2hPa 17,3°C 0,0km/h (0Bft) 0,0km/h 0,0l/m² 16,253klx 0,0min
08:05 17,3°C 71,5% 12,1°C 1015,2hPa 17,3°C 0,0km/h (0Bft) 0,0km/h 0,0l/m² 16,171klx 0,0min
08:00 17,3°C 72,2% 12,2°C 1015,2hPa 17,3°C 0,0km/h (0Bft) 0,0km/h 0,0l/m² 17,235klx 0,0min
07:55 17,1°C 74,0% 12,4°C 1015,2hPa 17,1°C 0,0km/h (0Bft) 0,0km/h 0,0l/m² 19,911klx 0,0min
07:50 16,9°C 74,4% 12,3°C 1015,3hPa 16,9°C 0,0km/h (0Bft) 0,0km/h 0,0l/m² 15,352klx 0,0min
07:45 16,8°C 74,9% 12,3°C 1015,3hPa 16,8°C 0,0km/h (0Bft) 0,0km/h 0,0l/m² 11,443klx 0,0min
07:40 16,8°C 74,0% 12,2°C 1015,3hPa 16,8°C 0,0km/h (0Bft) 0,0km/h 0,0l/m² 10,065klx 0,0min
07:35 16,8°C 74,4% 12,2°C 1015,3hPa 16,8°C 0,0km/h (0Bft) 0,0km/h 0,0l/m² 10,304klx 0,1min
07:30 16,8°C 74,8% 12,3°C 1015,2hPa 16,8°C 0,0km/h (0Bft) 0,0km/h 0,0l/m² 11,755klx 0,0min
07:25 16,7°C 75,0% 12,3°C 1015,2hPa 16,7°C 0,0km/h (0Bft) 0,0km/h 0,0l/m² 14,219klx 0,0min
07:20 16,6°C 75,2% 12,2°C 1015,3hPa 16,6°C 0,0km/h (0Bft) 0,0km/h 0,0l/m² 10,850klx 0,0min
07:15 16,5°C 75,1% 12,1°C 1015,3hPa 16,5°C 0,0km/h (0Bft) 0,0km/h 0,0l/m² 9,075klx 0,0min
07:10 16,5°C 74,8% 12,0°C 1015,3hPa 16,5°C 0,0km/h (0Bft) 0,0km/h 0,0l/m² 7,257klx 0,0min
07:05 16,4°C 75,9% 12,2°C 1015,3hPa 16,4°C 0,0km/h (0Bft) 0,0km/h 0,0l/m² 5,620klx 0,0min
07:00 16,3°C 77,2% 12,2°C 1015,3hPa 16,3°C 0,0km/h (0Bft) 0,0km/h 0,0l/m² 5,651klx 0,0min
06:55 16,1°C 78,3% 12,4°C 1015,3hPa 16,1°C 0,0km/h (0Bft) 0,0km/h 0,0l/m² 5,748klx 0,0min
06:50 16,0°C 79,5% 12,4°C 1015,3hPa 16,0°C 0,0km/h (0Bft) 0,0km/h 0,0l/m² 5,603klx 0,0min
06:45 16,0°C 79,3% 12,4°C 1015,3hPa 16,0°C 0,0km/h (0Bft) 0,0km/h 0,0l/m² 5,682klx 0,0min
06:40 16,0°C 78,7% 12,3°C 1015,3hPa 16,0°C 0,0km/h (0Bft) 0,0km/h 0,0l/m² 6,336klx 0,0min
06:35 15,9°C 78,8% 12,2°C 1015,4hPa 15,9°C 0,0km/h (0Bft) 0,0km/h 0,0l/m² 6,824klx 0,0min
06:30 15,9°C 78,8% 12,2°C 1015,4hPa 15,9°C 0,0km/h (0Bft) 0,0km/h 0,0l/m² 5,712klx 0,0min
06:25 15,9°C 78,6% 12,2°C 1015,5hPa 15,9°C 0,0km/h (0Bft) 0,0km/h 0,0l/m² 3,813klx 0,0min
06:20 15,8°C 79,8% 12,3°C 1015,5hPa 15,8°C 0,0km/h (0Bft) 0,0km/h 0,0l/m² 2,775klx 1,8min
06:15 15,9°C 78,9% 12,3°C 1015,6hPa 15,9°C 0,0km/h (0Bft) 0,0km/h 0,0l/m² 2,744klx 1,0min
06:10 16,1°C 77,7% 12,2°C 1015,6hPa 16,1°C 0,0km/h (0Bft) 0,0km/h 0,0l/m² 2,473klx 5,0min
06:05 16,2°C 76,3% 12,1°C 1015,7hPa 16,2°C 0,0km/h (0Bft) 0,0km/h 0,0l/m² 2,029klx 3,7min
06:00 16,3°C 76,0% 12,0°C 1015,7hPa 16,3°C 0,0km/h (0Bft) 0,0km/h 0,0l/m² 1,687klx 0,0min
05:55 16,3°C 75,8% 12,0°C 1015,7hPa 16,3°C 0,0km/h (0Bft) 0,0km/h 0,0l/m² 1,387klx 0,2min
05:50 16,4°C 75,0% 11,9°C 1015,8hPa 16,4°C 0,0km/h (0Bft) 0,0km/h 0,0l/m² 1,209klx 0,0min
05:45 16,3°C 75,5% 11,9°C 1015,8hPa 16,3°C 0,0km/h (0Bft) 0,0km/h 0,0l/m² 1,067klx 0,0min
05:40 16,2°C 75,7% 11,9°C 1015,8hPa 16,2°C 0,0km/h (0Bft) 0,0km/h 0,0l/m² 0,872klx 0,0min
05:35 16,0°C 76,8% 12,0°C 1015,8hPa 16,0°C 0,0km/h (0Bft) 0,0km/h 0,0l/m² 0,682klx 0,0min
05:30 16,0°C 76,4% 11,8°C 1015,8hPa 16,0°C 0,0km/h (0Bft) 0,0km/h 0,0l/m² 0,519klx 0,0min
05:25 15,9°C 76,8% 11,8°C 1015,8hPa 15,9°C 0,0km/h (0Bft) 0,0km/h 0,0l/m² 0,380klx 0,0min
05:20 15,7°C 78,0% 11,9°C 1015,8hPa 15,7°C 0,0km/h (0Bft) 0,0km/h 0,0l/m² 0,271klx 0,0min
05:15 15,9°C 76,7% 11,8°C 1015,8hPa 15,9°C 0,0km/h (0Bft) 0,0km/h 0,0l/m² 0,181klx 0,0min
05:10 15,9°C 76,3% 11,7°C 1015,9hPa 15,9°C 0,0km/h (0Bft) 0,0km/h 0,0l/m² 0,112klx 0,0min
05:05 15,8°C 76,9% 11,8°C 1015,9hPa 15,8°C 0,0km/h (0Bft) 0,0km/h 0,0l/m² 0,065klx 0,0min
05:00 15,9°C 75,9% 11,7°C 1015,9hPa 15,9°C 0,0km/h (0Bft) 0,0km/h 0,0l/m² 0,038klx 0,0min
04:55 16,1°C 75,3% 11,7°C 1015,9hPa 16,1°C 0,0km/h (0Bft) 0,0km/h 0,0l/m² 0,022klx 0,0min
04:50 16,0°C 75,3% 11,7°C 1015,9hPa 16,0°C 0,0km/h (0Bft) 0,0km/h 0,0l/m² 0,012klx 0,0min
04:45 16,1°C 74,8% 11,6°C 1016,0hPa 16,1°C 0,0km/h (0Bft) 0,0km/h 0,0l/m² 0,006klx 0,0min
04:40 16,2°C 74,2% 11,6°C 1016,0hPa 16,2°C 0,0km/h (0Bft) 0,0km/h 0,0l/m² 0,004klx 0,0min
04:35 16,3°C 73,9% 11,6°C 1016,1hPa 16,3°C 0,0km/h (0Bft) 0,0km/h 0,0l/m² 0,002klx 0,0min
04:30 16,3°C 73,3% 11,5°C 1016,1hPa 16,3°C 0,0km/h (0Bft) 0,0km/h 0,0l/m² 0,001klx 0,0min
04:25 16,3°C 73,1% 11,5°C 1016,1hPa 16,3°C 0,0km/h (0Bft) 0,0km/h 0,0l/m² 0,001klx 0,0min
04:20 16,3°C 73,2% 11,5°C 1016,1hPa 16,3°C 0,0km/h (0Bft) 0,0km/h 0,0l/m² 0,001klx 0,0min
04:15 16,4°C 72,4% 11,5°C 1016,1hPa 16,4°C 0,0km/h (0Bft) 0,0km/h 0,0l/m² 0,000klx 0,0min
04:10 16,5°C 72,0% 11,4°C 1016,1hPa 16,5°C 0,0km/h (0Bft) 0,0km/h 0,0l/m² 0,000klx 0,0min
04:05 16,4°C 72,8% 11,5°C 1016,1hPa 16,4°C 0,0km/h (0Bft) 0,0km/h 0,0l/m² 0,000klx 0,0min
04:00 16,5°C 72,1% 11,5°C 1016,1hPa 16,5°C 0,0km/h (0Bft) 0,0km/h 0,0l/m² 0,000klx 0,0min
03:55 16,6°C 71,5% 11,5°C 1016,1hPa 16,6°C 0,0km/h (0Bft) 0,0km/h 0,0l/m² 0,000klx 0,0min
03:50 16,5°C 71,9% 11,5°C 1016,2hPa 16,5°C 0,0km/h (0Bft) 0,0km/h 0,0l/m² 0,000klx 0,0min
03:45 16,3°C 73,1% 11,5°C 1016,3hPa 16,3°C 0,0km/h (0Bft) 0,0km/h 0,0l/m² 0,000klx 0,0min
03:40 16,4°C 72,9% 11,5°C 1016,3hPa 16,4°C 0,0km/h (0Bft) 0,0km/h 0,0l/m² 0,000klx 0,0min
03:35 16,5°C 72,4% 11,5°C 1016,3hPa 16,5°C 0,0km/h (0Bft) 0,0km/h 0,0l/m² 0,000klx 0,0min
03:30 16,4°C 72,6% 11,4°C 1016,3hPa 16,4°C 0,0km/h (0Bft) 0,0km/h 0,0l/m² 0,000klx 0,0min
03:25 16,5°C 72,0% 11,4°C 1016,3hPa 16,5°C 0,0km/h (0Bft) 0,0km/h 0,0l/m² 0,000klx 0,0min
03:20 16,6°C 71,1% 11,4°C 1016,2hPa 16,6°C 0,0km/h (0Bft) 0,0km/h 0,0l/m² 0,000klx 0,0min
03:15 16,6°C 71,2% 11,4°C 1016,2hPa 16,6°C 0,0km/h (0Bft) 0,0km/h 0,0l/m² 0,000klx 0,0min
03:10 16,8°C 70,1% 11,3°C 1016,3hPa 16,8°C 0,0km/h (0Bft) 0,0km/h 0,0l/m² 0,000klx 0,0min
03:05 16,7°C 69,9% 11,2°C 1016,3hPa 16,7°C 0,0km/h (0Bft) 0,0km/h 0,0l/m² 0,000klx 0,0min
03:00 16,9°C 68,7% 11,1°C 1016,4hPa 16,9°C 0,0km/h (0Bft) 0,0km/h 0,0l/m² 0,000klx 0,0min
02:55 17,0°C 67,5% 11,0°C 1016,4hPa 17,0°C 0,0km/h (0Bft) 0,0km/h 0,0l/m² 0,000klx 0,0min
02:50 17,1°C 66,9% 10,8°C 1016,5hPa 17,1°C 0,0km/h (0Bft) 0,0km/h 0,0l/m² 0,000klx 0,0min
02:45 17,0°C 67,4% 10,9°C 1016,6hPa 17,0°C 0,0km/h (0Bft) 0,0km/h 0,0l/m² 0,000klx 0,0min
02:40 17,0°C 68,3% 11,1°C 1016,7hPa 17,0°C 0,0km/h (0Bft) 0,0km/h 0,0l/m² 0,000klx 0,0min
02:35 16,9°C 69,4% 11,2°C 1016,7hPa 16,9°C 0,0km/h (0Bft) 0,0km/h 0,0l/m² 0,000klx 0,0min
02:30 16,9°C 69,4% 11,3°C 1016,7hPa 16,9°C 0,0km/h (0Bft) 0,0km/h 0,0l/m² 0,000klx 0,0min
02:25 16,9°C 70,2% 11,4°C 1016,7hPa 16,9°C 0,0km/h (0Bft) 0,0km/h 0,0l/m² 0,000klx 0,0min
02:20 16,8°C 70,2% 11,4°C 1016,7hPa 16,8°C 0,0km/h (0Bft) 0,0km/h 0,0l/m² 0,000klx 0,0min
02:15 16,8°C 70,6% 11,5°C 1016,8hPa 16,8°C 0,0km/h (0Bft) 0,0km/h 0,0l/m² 0,000klx 0,0min
02:10 17,0°C 70,4% 11,5°C 1016,8hPa 17,0°C 0,0km/h (0Bft) 0,0km/h 0,0l/m² 0,000klx 0,0min
02:05 16,8°C 71,9% 11,7°C 1016,8hPa 16,8°C 0,0km/h (0Bft) 0,0km/h 0,0l/m² 0,000klx 0,0min
02:00 16,9°C 72,3% 11,8°C 1016,8hPa 16,9°C 0,0km/h (0Bft) 0,0km/h 0,0l/m² 0,000klx 0,0min
01:55 16,8°C 73,0% 11,9°C 1016,9hPa 16,8°C 0,0km/h (0Bft) 0,0km/h 0,0l/m² 0,000klx 0,0min
01:50 16,9°C 73,2% 12,1°C 1016,9hPa 16,9°C 0,0km/h (0Bft) 0,0km/h 0,0l/m² 0,000klx 0,0min
01:45 16,9°C 74,2% 12,3°C 1016,8hPa 16,9°C 0,0km/h (0Bft) 0,0km/h 0,0l/m² 0,000klx 0,0min
01:40 16,8°C 75,6% 12,5°C 1016,8hPa 16,8°C 0,0km/h (0Bft) 0,0km/h 0,0l/m² 0,000klx 0,0min
01:35 16,6°C 76,4% 12,4°C 1016,9hPa 16,6°C 0,0km/h (0Bft) 0,0km/h 0,0l/m² 0,000klx 0,0min
01:30 16,7°C 76,2% 12,5°C 1016,8hPa 16,7°C 0,0km/h (0Bft) 0,0km/h 0,0l/m² 0,000klx 0,0min
01:25 16,8°C 75,4% 12,5°C 1016,8hPa 16,8°C 0,0km/h (0Bft) 0,0km/h 0,0l/m² 0,000klx 0,0min
01:20 16,9°C 74,8% 12,4°C 1016,9hPa 16,9°C 0,0km/h (0Bft) 0,0km/h 0,0l/m² 0,000klx 0,0min
01:15 16,7°C 76,0% 12,4°C 1016,9hPa 16,7°C 0,0km/h (0Bft) 0,0km/h 0,0l/m² 0,000klx 0,0min
01:10 16,8°C 75,0% 12,3°C 1016,9hPa 16,8°C 0,0km/h (0Bft) 0,0km/h 0,0l/m² 0,000klx 0,0min
01:05 16,9°C 74,0% 12,2°C 1016,9hPa 16,9°C 0,0km/h (0Bft) 0,0km/h 0,0l/m² 0,000klx 0,0min
01:00 17,1°C 73,2% 12,2°C 1016,8hPa 17,1°C 0,0km/h (0Bft) 0,0km/h 0,0l/m² 0,000klx 0,0min
00:55 17,2°C 72,3% 12,2°C 1016,8hPa 17,2°C 0,0km/h (0Bft) 0,0km/h 0,0l/m² 0,000klx 0,0min
00:50 17,2°C 72,1% 12,1°C 1016,8hPa 17,2°C 0,0km/h (0Bft) 0,0km/h 0,0l/m² 0,000klx 0,0min
00:45 17,2°C 72,6% 12,3°C 1016,8hPa 17,2°C 0,0km/h (0Bft) 0,0km/h 0,0l/m² 0,000klx 0,0min
00:40 17,6°C 70,7% 12,2°C 1016,8hPa 17,6°C 0,0km/h (0Bft) 0,0km/h 0,0l/m² 0,000klx 0,0min
00:35 17,5°C 72,8% 12,5°C 1016,8hPa 17,5°C 0,0km/h (0Bft) 0,0km/h 0,0l/m² 0,000klx 0,0min
00:30 17,5°C 72,9% 12,6°C 1016,8hPa 17,5°C 0,0km/h (0Bft) 0,0km/h 0,0l/m² 0,000klx 0,0min
00:25 17,5°C 73,1% 12,7°C 1016,9hPa 17,5°C 0,0km/h (0Bft) 0,0km/h 0,0l/m² 0,000klx 0,0min
00:20 17,5°C 73,6% 12,7°C 1016,9hPa 17,5°C 0,0km/h (0Bft) 0,0km/h 0,0l/m² 0,000klx 0,0min
00:15 17,4°C 74,0% 12,7°C 1016,8hPa 17,4°C 0,0km/h (0Bft) 0,0km/h 0,0l/m² 0,000klx 0,0min
00:10 17,5°C 73,5% 12,7°C 1016,8hPa 17,5°C 0,0km/h (0Bft) 0,0km/h 0,0l/m² 0,000klx 0,0min
00:05 17,6°C 73,4% 12,7°C 1016,7hPa 17,6°C 0,0km/h (0Bft) 0,0km/h 0,0l/m² 0,000klx 0,0min
00:00 17,6°C 73,1% 12,7°C 1016,7hPa 17,6°C 0,0km/h (0Bft) 0,0km/h 0,0l/m² 0,000klx 0,0min

Aktuelle Wetterdaten

04.07.2020 16:45 Uhr